sensor_id;sensor_type;location;lat;lon;timestamp;P1;durP1;ratioP1;P2;durP2;ratioP2
44165;SDS011;30476;53.468;9.826;2023-03-12T00:01:24;5.10;;;4.60;;
44165;SDS011;30476;53.468;9.826;2023-03-12T00:03:59;8.23;;;5.33;;
44165;SDS011;30476;53.468;9.826;2023-03-12T00:06:26;5.50;;;3.70;;
44165;SDS011;30476;53.468;9.826;2023-03-12T00:08:52;5.30;;;3.90;;
44165;SDS011;30476;53.468;9.826;2023-03-12T00:11:18;4.13;;;3.37;;
44165;SDS011;30476;53.468;9.826;2023-03-12T00:13:51;4.20;;;3.60;;
44165;SDS011;30476;53.468;9.826;2023-03-12T00:16:19;3.40;;;3.20;;
44165;SDS011;30476;53.468;9.826;2023-03-12T00:18:49;5.13;;;3.40;;
44165;SDS011;30476;53.468;9.826;2023-03-12T00:21:16;3.90;;;3.60;;
44165;SDS011;30476;53.468;9.826;2023-03-12T00:23:43;3.90;;;3.23;;
44165;SDS011;30476;53.468;9.826;2023-03-12T00:26:11;3.10;;;2.90;;
44165;SDS011;30476;53.468;9.826;2023-03-12T00:28:38;3.70;;;3.50;;
44165;SDS011;30476;53.468;9.826;2023-03-12T00:31:15;6.70;;;3.27;;
44165;SDS011;30476;53.468;9.826;2023-03-12T00:33:43;4.30;;;3.33;;
44165;SDS011;30476;53.468;9.826;2023-03-12T00:36:09;3.93;;;3.60;;
44165;SDS011;30476;53.468;9.826;2023-03-12T00:38:35;5.60;;;5.10;;
44165;SDS011;30476;53.468;9.826;2023-03-12T00:41:01;5.33;;;3.80;;
44165;SDS011;30476;53.468;9.826;2023-03-12T00:43:27;3.47;;;3.17;;
44165;SDS011;30476;53.468;9.826;2023-03-12T00:45:53;3.17;;;2.97;;
44165;SDS011;30476;53.468;9.826;2023-03-12T00:48:18;3.40;;;3.10;;
44165;SDS011;30476;53.468;9.826;2023-03-12T00:50:44;5.00;;;3.03;;
44165;SDS011;30476;53.468;9.826;2023-03-12T00:53:10;4.17;;;3.77;;
44165;SDS011;30476;53.468;9.826;2023-03-12T00:55:36;3.80;;;3.50;;
44165;SDS011;30476;53.468;9.826;2023-03-12T00:58:02;3.30;;;3.00;;
44165;SDS011;30476;53.468;9.826;2023-03-12T01:00:27;3.80;;;3.57;;
44165;SDS011;30476;53.468;9.826;2023-03-12T01:02:53;3.17;;;2.87;;
44165;SDS011;30476;53.468;9.826;2023-03-12T01:05:19;4.33;;;3.73;;
44165;SDS011;30476;53.468;9.826;2023-03-12T01:07:45;4.13;;;3.67;;
44165;SDS011;30476;53.468;9.826;2023-03-12T01:10:12;5.40;;;3.30;;
44165;SDS011;30476;53.468;9.826;2023-03-12T01:12:41;3.10;;;2.90;;
44165;SDS011;30476;53.468;9.826;2023-03-12T01:15:07;6.33;;;4.00;;
44165;SDS011;30476;53.468;9.826;2023-03-12T01:17:33;3.83;;;3.53;;
44165;SDS011;30476;53.468;9.826;2023-03-12T01:19:59;3.50;;;3.20;;
44165;SDS011;30476;53.468;9.826;2023-03-12T01:22:25;3.97;;;3.67;;
44165;SDS011;30476;53.468;9.826;2023-03-12T01:24:51;4.47;;;4.07;;
44165;SDS011;30476;53.468;9.826;2023-03-12T01:27:17;6.30;;;3.87;;
44165;SDS011;30476;53.468;9.826;2023-03-12T01:29:42;5.30;;;3.40;;
44165;SDS011;30476;53.468;9.826;2023-03-12T01:32:08;3.50;;;3.20;;
44165;SDS011;30476;53.468;9.826;2023-03-12T01:34:34;3.30;;;3.00;;
44165;SDS011;30476;53.468;9.826;2023-03-12T01:37:00;3.73;;;3.40;;
44165;SDS011;30476;53.468;9.826;2023-03-12T01:39:26;3.53;;;3.33;;
44165;SDS011;30476;53.468;9.826;2023-03-12T01:41:52;3.60;;;2.97;;
44165;SDS011;30476;53.468;9.826;2023-03-12T01:44:18;3.80;;;3.50;;
44165;SDS011;30476;53.468;9.826;2023-03-12T01:46:44;3.77;;;3.47;;
44165;SDS011;30476;53.468;9.826;2023-03-12T01:49:23;4.23;;;3.53;;
44165;SDS011;30476;53.468;9.826;2023-03-12T01:54:26;9.37;;;3.13;;
44165;SDS011;30476;53.468;9.826;2023-03-12T01:56:57;4.53;;;3.80;;
44165;SDS011;30476;53.468;9.826;2023-03-12T01:59:44;3.60;;;3.23;;
44165;SDS011;30476;53.468;9.826;2023-03-12T02:02:13;4.00;;;3.70;;
44165;SDS011;30476;53.468;9.826;2023-03-12T02:04:41;8.00;;;4.07;;
44165;SDS011;30476;53.468;9.826;2023-03-12T02:07:10;8.47;;;3.77;;
44165;SDS011;30476;53.468;9.826;2023-03-12T02:09:42;4.20;;;3.90;;
44165;SDS011;30476;53.468;9.826;2023-03-12T02:15:34;4.67;;;4.03;;
44165;SDS011;30476;53.468;9.826;2023-03-12T02:18:04;3.97;;;3.77;;
44165;SDS011;30476;53.468;9.826;2023-03-12T02:20:46;4.73;;;4.30;;
44165;SDS011;30476;53.468;9.826;2023-03-12T02:25:57;4.90;;;4.07;;
44165;SDS011;30476;53.468;9.826;2023-03-12T02:28:26;5.93;;;5.13;;
44165;SDS011;30476;53.468;9.826;2023-03-12T02:30:56;4.40;;;4.00;;
44165;SDS011;30476;53.468;9.826;2023-03-12T02:33:24;5.80;;;4.57;;
44165;SDS011;30476;53.468;9.826;2023-03-12T02:35:50;6.70;;;4.23;;
44165;SDS011;30476;53.468;9.826;2023-03-12T02:38:28;4.70;;;3.90;;
44165;SDS011;30476;53.468;9.826;2023-03-12T02:41:07;4.37;;;4.07;;
44165;SDS011;30476;53.468;9.826;2023-03-12T02:43:37;6.50;;;4.97;;
44165;SDS011;30476;53.468;9.826;2023-03-12T02:46:03;4.40;;;4.00;;
44165;SDS011;30476;53.468;9.826;2023-03-12T02:48:30;5.23;;;4.37;;
44165;SDS011;30476;53.468;9.826;2023-03-12T02:50:56;6.53;;;4.67;;
44165;SDS011;30476;53.468;9.826;2023-03-12T02:53:22;4.20;;;3.73;;
44165;SDS011;30476;53.468;9.826;2023-03-12T02:55:48;4.53;;;4.13;;
44165;SDS011;30476;53.468;9.826;2023-03-12T02:58:13;4.73;;;4.23;;
44165;SDS011;30476;53.468;9.826;2023-03-12T03:00:39;5.50;;;4.30;;
44165;SDS011;30476;53.468;9.826;2023-03-12T03:03:05;6.43;;;4.20;;
44165;SDS011;30476;53.468;9.826;2023-03-12T03:05:31;4.67;;;4.03;;
44165;SDS011;30476;53.468;9.826;2023-03-12T03:07:57;5.40;;;4.63;;
44165;SDS011;30476;53.468;9.826;2023-03-12T03:10:23;4.83;;;4.30;;
44165;SDS011;30476;53.468;9.826;2023-03-12T03:12:50;4.87;;;4.47;;
44165;SDS011;30476;53.468;9.826;2023-03-12T03:15:15;5.50;;;4.93;;
44165;SDS011;30476;53.468;9.826;2023-03-12T03:17:41;5.27;;;4.67;;
44165;SDS011;30476;53.468;9.826;2023-03-12T03:20:07;5.00;;;4.47;;
44165;SDS011;30476;53.468;9.826;2023-03-12T03:22:35;4.87;;;4.37;;
44165;SDS011;30476;53.468;9.826;2023-03-12T03:25:02;5.03;;;4.03;;
44165;SDS011;30476;53.468;9.826;2023-03-12T03:27:29;4.60;;;4.20;;
44165;SDS011;30476;53.468;9.826;2023-03-12T03:29:55;5.40;;;4.90;;
44165;SDS011;30476;53.468;9.826;2023-03-12T03:32:20;4.93;;;4.53;;
44165;SDS011;30476;53.468;9.826;2023-03-12T03:34:46;5.30;;;4.50;;
44165;SDS011;30476;53.468;9.826;2023-03-12T03:37:12;5.07;;;4.67;;
44165;SDS011;30476;53.468;9.826;2023-03-12T03:39:38;4.63;;;4.20;;
44165;SDS011;30476;53.468;9.826;2023-03-12T03:42:04;5.63;;;5.13;;
44165;SDS011;30476;53.468;9.826;2023-03-12T03:44:30;6.20;;;5.60;;
44165;SDS011;30476;53.468;9.826;2023-03-12T03:46:56;6.90;;;5.07;;
44165;SDS011;30476;53.468;9.826;2023-03-12T03:49:21;5.40;;;4.90;;
44165;SDS011;30476;53.468;9.826;2023-03-12T03:51:47;5.27;;;4.77;;
44165;SDS011;30476;53.468;9.826;2023-03-12T03:54:16;4.83;;;4.43;;
44165;SDS011;30476;53.468;9.826;2023-03-12T03:56:42;6.33;;;5.83;;
44165;SDS011;30476;53.468;9.826;2023-03-12T03:59:08;13.10;;;6.10;;
44165;SDS011;30476;53.468;9.826;2023-03-12T04:01:33;5.00;;;4.60;;
44165;SDS011;30476;53.468;9.826;2023-03-12T04:04:01;6.10;;;4.90;;
44165;SDS011;30476;53.468;9.826;2023-03-12T04:06:28;5.70;;;5.07;;
44165;SDS011;30476;53.468;9.826;2023-03-12T04:08:55;7.13;;;5.30;;
44165;SDS011;30476;53.468;9.826;2023-03-12T04:11:22;7.13;;;5.00;;
44165;SDS011;30476;53.468;9.826;2023-03-12T04:13:48;5.70;;;5.20;;
44165;SDS011;30476;53.468;9.826;2023-03-12T04:16:15;6.40;;;5.80;;
44165;SDS011;30476;53.468;9.826;2023-03-12T04:18:41;5.87;;;5.37;;
44165;SDS011;30476;53.468;9.826;2023-03-12T04:21:08;6.80;;;6.10;;
44165;SDS011;30476;53.468;9.826;2023-03-12T04:23:36;5.70;;;5.20;;
44165;SDS011;30476;53.468;9.826;2023-03-12T04:26:02;12.33;;;5.33;;
44165;SDS011;30476;53.468;9.826;2023-03-12T04:28:28;7.40;;;6.27;;
44165;SDS011;30476;53.468;9.826;2023-03-12T04:30:55;6.90;;;5.87;;
44165;SDS011;30476;53.468;9.826;2023-03-12T04:33:30;7.60;;;5.40;;
44165;SDS011;30476;53.468;9.826;2023-03-12T04:35:58;6.37;;;5.87;;
44165;SDS011;30476;53.468;9.826;2023-03-12T04:38:24;9.10;;;6.40;;
44165;SDS011;30476;53.468;9.826;2023-03-12T04:40:58;8.70;;;5.80;;
44165;SDS011;30476;53.468;9.826;2023-03-12T04:43:35;9.20;;;6.10;;
44165;SDS011;30476;53.468;9.826;2023-03-12T04:46:01;9.50;;;6.70;;
44165;SDS011;30476;53.468;9.826;2023-03-12T04:48:28;7.80;;;5.90;;
44165;SDS011;30476;53.468;9.826;2023-03-12T04:50:54;7.87;;;7.00;;
44165;SDS011;30476;53.468;9.826;2023-03-12T04:53:20;7.90;;;6.23;;
44165;SDS011;30476;53.468;9.826;2023-03-12T04:55:46;7.57;;;6.47;;
44165;SDS011;30476;53.468;9.826;2023-03-12T04:58:12;11.47;;;6.77;;
44165;SDS011;30476;53.468;9.826;2023-03-12T05:00:39;7.80;;;6.73;;
44165;SDS011;30476;53.468;9.826;2023-03-12T05:03:06;7.63;;;6.83;;
44165;SDS011;30476;53.468;9.826;2023-03-12T05:05:32;7.77;;;6.97;;
44165;SDS011;30476;53.468;9.826;2023-03-12T05:07:58;8.13;;;7.23;;
44165;SDS011;30476;53.468;9.826;2023-03-12T05:10:24;7.17;;;6.53;;
44165;SDS011;30476;53.468;9.826;2023-03-12T05:12:50;8.80;;;7.17;;
44165;SDS011;30476;53.468;9.826;2023-03-12T05:15:15;8.60;;;7.00;;
44165;SDS011;30476;53.468;9.826;2023-03-12T05:17:42;7.60;;;7.00;;
44165;SDS011;30476;53.468;9.826;2023-03-12T05:20:09;9.40;;;7.63;;
44165;SDS011;30476;53.468;9.826;2023-03-12T05:22:35;9.37;;;7.13;;
44165;SDS011;30476;53.468;9.826;2023-03-12T05:25:01;7.23;;;6.60;;
44165;SDS011;30476;53.468;9.826;2023-03-12T05:27:28;10.53;;;7.00;;
44165;SDS011;30476;53.468;9.826;2023-03-12T05:29:54;9.13;;;7.30;;
44165;SDS011;30476;53.468;9.826;2023-03-12T05:32:20;8.90;;;7.63;;
44165;SDS011;30476;53.468;9.826;2023-03-12T05:34:45;8.50;;;6.37;;
44165;SDS011;30476;53.468;9.826;2023-03-12T05:37:11;8.33;;;7.53;;
44165;SDS011;30476;53.468;9.826;2023-03-12T05:39:37;6.87;;;6.17;;
44165;SDS011;30476;53.468;9.826;2023-03-12T05:42:03;8.83;;;7.17;;
44165;SDS011;30476;53.468;9.826;2023-03-12T05:44:29;8.83;;;6.23;;
44165;SDS011;30476;53.468;9.826;2023-03-12T05:46:56;6.93;;;6.47;;
44165;SDS011;30476;53.468;9.826;2023-03-12T05:49:22;9.33;;;8.10;;
44165;SDS011;30476;53.468;9.826;2023-03-12T05:51:48;6.37;;;5.93;;
44165;SDS011;30476;53.468;9.826;2023-03-12T05:54:15;6.17;;;5.67;;
44165;SDS011;30476;53.468;9.826;2023-03-12T05:56:42;7.37;;;6.73;;
44165;SDS011;30476;53.468;9.826;2023-03-12T05:59:08;6.90;;;6.40;;
44165;SDS011;30476;53.468;9.826;2023-03-12T06:01:35;6.53;;;5.93;;
44165;SDS011;30476;53.468;9.826;2023-03-12T06:04:01;6.73;;;6.23;;
44165;SDS011;30476;53.468;9.826;2023-03-12T06:06:28;8.50;;;6.67;;
44165;SDS011;30476;53.468;9.826;2023-03-12T06:08:55;6.70;;;6.00;;
44165;SDS011;30476;53.468;9.826;2023-03-12T06:11:20;6.80;;;6.30;;
44165;SDS011;30476;53.468;9.826;2023-03-12T06:13:46;7.13;;;6.53;;
44165;SDS011;30476;53.468;9.826;2023-03-12T06:16:19;7.00;;;5.80;;
44165;SDS011;30476;53.468;9.826;2023-03-12T06:18:47;9.53;;;6.50;;
44165;SDS011;30476;53.468;9.826;2023-03-12T06:21:20;7.43;;;6.10;;
44165;SDS011;30476;53.468;9.826;2023-03-12T06:23:47;7.93;;;6.07;;
44165;SDS011;30476;53.468;9.826;2023-03-12T06:26:14;6.43;;;5.67;;
44165;SDS011;30476;53.468;9.826;2023-03-12T06:28:41;6.30;;;5.50;;
44165;SDS011;30476;53.468;9.826;2023-03-12T06:31:08;7.07;;;5.20;;
44165;SDS011;30476;53.468;9.826;2023-03-12T06:33:34;5.73;;;5.20;;
44165;SDS011;30476;53.468;9.826;2023-03-12T06:36:01;5.60;;;5.10;;
44165;SDS011;30476;53.468;9.826;2023-03-12T06:38:28;5.83;;;5.43;;
44165;SDS011;30476;53.468;9.826;2023-03-12T06:40:55;8.40;;;6.33;;
44165;SDS011;30476;53.468;9.826;2023-03-12T06:43:26;7.80;;;4.70;;
44165;SDS011;30476;53.468;9.826;2023-03-12T06:45:53;4.83;;;4.40;;
44165;SDS011;30476;53.468;9.826;2023-03-12T06:48:20;6.53;;;4.80;;
44165;SDS011;30476;53.468;9.826;2023-03-12T06:50:47;5.17;;;4.73;;
44165;SDS011;30476;53.468;9.826;2023-03-12T06:53:13;6.07;;;4.07;;
44165;SDS011;30476;53.468;9.826;2023-03-12T06:55:39;5.67;;;5.27;;
44165;SDS011;30476;53.468;9.826;2023-03-12T06:58:05;5.57;;;4.33;;
44165;SDS011;30476;53.468;9.826;2023-03-12T07:00:31;5.23;;;4.77;;
44165;SDS011;30476;53.468;9.826;2023-03-12T07:02:57;8.70;;;4.10;;
44165;SDS011;30476;53.468;9.826;2023-03-12T07:05:23;4.63;;;4.23;;
44165;SDS011;30476;53.468;9.826;2023-03-12T07:07:49;4.30;;;3.90;;
44165;SDS011;30476;53.468;9.826;2023-03-12T07:10:15;6.60;;;3.77;;
44165;SDS011;30476;53.468;9.826;2023-03-12T07:12:42;4.30;;;3.47;;
44165;SDS011;30476;53.468;9.826;2023-03-12T07:15:09;3.60;;;3.33;;
44165;SDS011;30476;53.468;9.826;2023-03-12T07:17:35;4.23;;;3.80;;
44165;SDS011;30476;53.468;9.826;2023-03-12T07:20:01;10.60;;;3.30;;
44165;SDS011;30476;53.468;9.826;2023-03-12T07:22:27;3.63;;;3.33;;
44165;SDS011;30476;53.468;9.826;2023-03-12T07:24:53;6.67;;;3.80;;
44165;SDS011;30476;53.468;9.826;2023-03-12T07:27:19;2.70;;;2.50;;
44165;SDS011;30476;53.468;9.826;2023-03-12T07:29:45;4.13;;;3.60;;
44165;SDS011;30476;53.468;9.826;2023-03-12T07:32:10;3.87;;;2.77;;
44165;SDS011;30476;53.468;9.826;2023-03-12T07:34:36;3.30;;;3.00;;
44165;SDS011;30476;53.468;9.826;2023-03-12T07:37:02;6.40;;;3.23;;
44165;SDS011;30476;53.468;9.826;2023-03-12T07:39:29;6.23;;;2.47;;
44165;SDS011;30476;53.468;9.826;2023-03-12T07:41:55;4.70;;;2.50;;
44165;SDS011;30476;53.468;9.826;2023-03-12T07:44:21;3.97;;;2.53;;
44165;SDS011;30476;53.468;9.826;2023-03-12T07:46:47;2.50;;;2.30;;
44165;SDS011;30476;53.468;9.826;2023-03-12T07:49:13;4.20;;;2.90;;
44165;SDS011;30476;53.468;9.826;2023-03-12T07:51:39;4.00;;;2.20;;
44165;SDS011;30476;53.468;9.826;2023-03-12T07:54:05;3.10;;;2.20;;
44165;SDS011;30476;53.468;9.826;2023-03-12T07:56:30;3.10;;;2.20;;
44165;SDS011;30476;53.468;9.826;2023-03-12T07:58:56;4.80;;;2.17;;
44165;SDS011;30476;53.468;9.826;2023-03-12T08:01:22;2.53;;;2.33;;
44165;SDS011;30476;53.468;9.826;2023-03-12T08:03:49;5.23;;;2.17;;
44165;SDS011;30476;53.468;9.826;2023-03-12T08:06:15;2.40;;;2.20;;
44165;SDS011;30476;53.468;9.826;2023-03-12T08:08:41;2.30;;;2.10;;
44165;SDS011;30476;53.468;9.826;2023-03-12T08:11:07;2.47;;;2.20;;
44165;SDS011;30476;53.468;9.826;2023-03-12T08:13:33;3.47;;;2.43;;
44165;SDS011;30476;53.468;9.826;2023-03-12T08:15:59;3.47;;;3.17;;
44165;SDS011;30476;53.468;9.826;2023-03-12T08:18:26;2.70;;;2.07;;
44165;SDS011;30476;53.468;9.826;2023-03-12T08:20:52;3.40;;;2.00;;
44165;SDS011;30476;53.468;9.826;2023-03-12T08:23:19;4.40;;;1.93;;
44165;SDS011;30476;53.468;9.826;2023-03-12T08:25:46;1.70;;;1.60;;
44165;SDS011;30476;53.468;9.826;2023-03-12T08:28:16;2.37;;;1.93;;
44165;SDS011;30476;53.468;9.826;2023-03-12T08:30:44;4.43;;;2.00;;
44165;SDS011;30476;53.468;9.826;2023-03-12T08:33:14;3.67;;;1.60;;
44165;SDS011;30476;53.468;9.826;2023-03-12T08:35:41;3.33;;;2.00;;
44165;SDS011;30476;53.468;9.826;2023-03-12T08:38:06;4.33;;;1.57;;
44165;SDS011;30476;53.468;9.826;2023-03-12T08:40:32;5.83;;;1.90;;
44165;SDS011;30476;53.468;9.826;2023-03-12T08:42:58;2.13;;;1.60;;
44165;SDS011;30476;53.468;9.826;2023-03-12T08:45:25;3.87;;;2.13;;
44165;SDS011;30476;53.468;9.826;2023-03-12T08:47:51;3.37;;;2.03;;
44165;SDS011;30476;53.468;9.826;2023-03-12T08:50:17;2.37;;;2.17;;
44165;SDS011;30476;53.468;9.826;2023-03-12T08:52:45;3.97;;;2.47;;
44165;SDS011;30476;53.468;9.826;2023-03-12T08:55:11;5.53;;;2.43;;
44165;SDS011;30476;53.468;9.826;2023-03-12T08:57:37;2.60;;;2.50;;
44165;SDS011;30476;53.468;9.826;2023-03-12T09:00:04;5.23;;;1.90;;
44165;SDS011;30476;53.468;9.826;2023-03-12T09:02:36;2.80;;;2.60;;
44165;SDS011;30476;53.468;9.826;2023-03-12T09:05:03;3.67;;;2.90;;
44165;SDS011;30476;53.468;9.826;2023-03-12T09:07:32;3.53;;;3.23;;
44165;SDS011;30476;53.468;9.826;2023-03-12T09:09:57;4.50;;;3.10;;
44165;SDS011;30476;53.468;9.826;2023-03-12T09:12:23;3.60;;;3.27;;
44165;SDS011;30476;53.468;9.826;2023-03-12T09:14:49;4.50;;;3.30;;
44165;SDS011;30476;53.468;9.826;2023-03-12T09:17:16;3.90;;;3.50;;
44165;SDS011;30476;53.468;9.826;2023-03-12T09:19:42;3.67;;;3.30;;
44165;SDS011;30476;53.468;9.826;2023-03-12T09:22:08;4.47;;;3.83;;
44165;SDS011;30476;53.468;9.826;2023-03-12T09:24:34;5.37;;;3.07;;
44165;SDS011;30476;53.468;9.826;2023-03-12T09:27:00;4.20;;;3.90;;
44165;SDS011;30476;53.468;9.826;2023-03-12T09:29:28;3.93;;;3.63;;
44165;SDS011;30476;53.468;9.826;2023-03-12T09:31:55;4.07;;;3.33;;
44165;SDS011;30476;53.468;9.826;2023-03-12T09:34:21;3.53;;;3.23;;
44165;SDS011;30476;53.468;9.826;2023-03-12T09:36:47;8.23;;;3.93;;
44165;SDS011;30476;53.468;9.826;2023-03-12T09:39:13;3.30;;;3.10;;
44165;SDS011;30476;53.468;9.826;2023-03-12T09:41:39;10.83;;;4.17;;
44165;SDS011;30476;53.468;9.826;2023-03-12T09:44:12;3.40;;;3.10;;
44165;SDS011;30476;53.468;9.826;2023-03-12T09:47:01;3.87;;;3.60;;
44165;SDS011;30476;53.468;9.826;2023-03-12T09:57:43;3.20;;;3.00;;
44165;SDS011;30476;53.468;9.826;2023-03-12T10:00:11;2.97;;;2.80;;
44165;SDS011;30476;53.468;9.826;2023-03-12T10:11:25;3.67;;;3.40;;
44165;SDS011;30476;53.468;9.826;2023-03-12T10:17:26;3.77;;;3.40;;
44165;SDS011;30476;53.468;9.826;2023-03-12T10:20:31;4.33;;;3.90;;
44165;SDS011;30476;53.468;9.826;2023-03-12T10:23:29;3.47;;;3.17;;
44165;SDS011;30476;53.468;9.826;2023-03-12T10:26:23;3.70;;;3.43;;
44165;SDS011;30476;53.468;9.826;2023-03-12T10:29:09;3.30;;;3.10;;
44165;SDS011;30476;53.468;9.826;2023-03-12T10:31:42;4.47;;;3.53;;
44165;SDS011;30476;53.468;9.826;2023-03-12T10:36:51;3.70;;;3.30;;
44165;SDS011;30476;53.468;9.826;2023-03-12T10:39:38;2.93;;;2.73;;
44165;SDS011;30476;53.468;9.826;2023-03-12T10:42:11;4.13;;;3.70;;
44165;SDS011;30476;53.468;9.826;2023-03-12T10:44:40;5.83;;;3.17;;
44165;SDS011;30476;53.468;9.826;2023-03-12T10:47:15;3.23;;;3.03;;
44165;SDS011;30476;53.468;9.826;2023-03-12T10:49:56;2.73;;;2.53;;
44165;SDS011;30476;53.468;9.826;2023-03-12T10:52:37;2.93;;;2.73;;
44165;SDS011;30476;53.468;9.826;2023-03-12T10:55:23;2.70;;;2.50;;
44165;SDS011;30476;53.468;9.826;2023-03-12T10:57:51;3.20;;;2.90;;
44165;SDS011;30476;53.468;9.826;2023-03-12T11:00:20;2.97;;;2.77;;
44165;SDS011;30476;53.468;9.826;2023-03-12T11:02:55;3.43;;;3.23;;
44165;SDS011;30476;53.468;9.826;2023-03-12T11:05:25;3.37;;;3.07;;
44165;SDS011;30476;53.468;9.826;2023-03-12T11:07:56;3.27;;;2.97;;
44165;SDS011;30476;53.468;9.826;2023-03-12T11:10:25;4.03;;;3.63;;
44165;SDS011;30476;53.468;9.826;2023-03-12T11:15:36;3.80;;;3.03;;
44165;SDS011;30476;53.468;9.826;2023-03-12T11:18:19;2.17;;;1.97;;
44165;SDS011;30476;53.468;9.826;2023-03-12T11:21:12;2.50;;;2.23;;
44165;SDS011;30476;53.468;9.826;2023-03-12T11:23:40;2.20;;;1.70;;
44165;SDS011;30476;53.468;9.826;2023-03-12T11:26:22;3.03;;;2.67;;
44165;SDS011;30476;53.468;9.826;2023-03-12T11:31:55;1.83;;;1.73;;
44165;SDS011;30476;53.468;9.826;2023-03-12T11:34:29;5.13;;;1.70;;
44165;SDS011;30476;53.468;9.826;2023-03-12T11:39:25;3.83;;;2.10;;
44165;SDS011;30476;53.468;9.826;2023-03-12T11:42:08;8.57;;;2.23;;
44165;SDS011;30476;53.468;9.826;2023-03-12T11:45:04;1.90;;;1.70;;
44165;SDS011;30476;53.468;9.826;2023-03-12T11:50:39;4.10;;;1.93;;
44165;SDS011;30476;53.468;9.826;2023-03-12T11:58:54;2.87;;;1.83;;
44165;SDS011;30476;53.468;9.826;2023-03-12T12:10:24;2.20;;;1.70;;
44165;SDS011;30476;53.468;9.826;2023-03-12T12:13:10;3.73;;;3.40;;
44165;SDS011;30476;53.468;9.826;2023-03-12T12:15:58;2.00;;;1.70;;
44165;SDS011;30476;53.468;9.826;2023-03-12T12:19:00;3.50;;;1.83;;
44165;SDS011;30476;53.468;9.826;2023-03-12T12:27:23;2.87;;;2.20;;
44165;SDS011;30476;53.468;9.826;2023-03-12T12:33:17;2.50;;;2.30;;
44165;SDS011;30476;53.468;9.826;2023-03-12T12:36:06;4.27;;;2.00;;
44165;SDS011;30476;53.468;9.826;2023-03-12T12:38:35;4.03;;;2.03;;
44165;SDS011;30476;53.468;9.826;2023-03-12T12:43:39;1.83;;;1.63;;
44165;SDS011;30476;53.468;9.826;2023-03-12T12:46:22;2.80;;;1.70;;
44165;SDS011;30476;53.468;9.826;2023-03-12T12:48:52;3.13;;;1.70;;
44165;SDS011;30476;53.468;9.826;2023-03-12T12:51:26;2.50;;;1.50;;
44165;SDS011;30476;53.468;9.826;2023-03-12T12:54:04;5.33;;;1.70;;
44165;SDS011;30476;53.468;9.826;2023-03-12T12:56:55;2.30;;;2.20;;
44165;SDS011;30476;53.468;9.826;2023-03-12T13:02:21;4.40;;;4.07;;
44165;SDS011;30476;53.468;9.826;2023-03-12T13:04:53;2.90;;;1.97;;
44165;SDS011;30476;53.468;9.826;2023-03-12T13:09:52;2.10;;;1.87;;
44165;SDS011;30476;53.468;9.826;2023-03-12T13:12:28;2.23;;;2.03;;
44165;SDS011;30476;53.468;9.826;2023-03-12T13:14:57;2.10;;;1.97;;
44165;SDS011;30476;53.468;9.826;2023-03-12T13:25:30;3.40;;;2.10;;
44165;SDS011;30476;53.468;9.826;2023-03-12T13:30:53;2.20;;;1.57;;
44165;SDS011;30476;53.468;9.826;2023-03-12T13:33:35;1.93;;;1.83;;
44165;SDS011;30476;53.468;9.826;2023-03-12T13:36:09;3.30;;;1.90;;
44165;SDS011;30476;53.468;9.826;2023-03-12T13:47:03;2.90;;;2.30;;
44165;SDS011;30476;53.468;9.826;2023-03-12T13:52:19;1.83;;;1.73;;
44165;SDS011;30476;53.468;9.826;2023-03-12T13:57:34;2.13;;;1.83;;
44165;SDS011;30476;53.468;9.826;2023-03-12T14:00:26;2.60;;;1.87;;
44165;SDS011;30476;53.468;9.826;2023-03-12T14:05:57;3.80;;;1.97;;
44165;SDS011;30476;53.468;9.826;2023-03-12T14:11:28;4.20;;;2.50;;
44165;SDS011;30476;53.468;9.826;2023-03-12T14:16:50;3.37;;;2.40;;
44165;SDS011;30476;53.468;9.826;2023-03-12T14:19:20;2.40;;;2.30;;
44165;SDS011;30476;53.468;9.826;2023-03-12T14:21:52;2.47;;;2.33;;
44165;SDS011;30476;53.468;9.826;2023-03-12T14:24:39;3.40;;;2.30;;
44165;SDS011;30476;53.468;9.826;2023-03-12T14:27:11;2.60;;;2.40;;
44165;SDS011;30476;53.468;9.826;2023-03-12T14:29:51;4.20;;;3.23;;
44165;SDS011;30476;53.468;9.826;2023-03-12T14:32:22;4.97;;;3.10;;
44165;SDS011;30476;53.468;9.826;2023-03-12T14:35:15;2.63;;;2.53;;
44165;SDS011;30476;53.468;9.826;2023-03-12T14:38:04;4.30;;;3.30;;
44165;SDS011;30476;53.468;9.826;2023-03-12T14:45:58;3.90;;;3.60;;
44165;SDS011;30476;53.468;9.826;2023-03-12T14:48:28;4.10;;;3.40;;
44165;SDS011;30476;53.468;9.826;2023-03-12T14:50:59;2.83;;;2.60;;
44165;SDS011;30476;53.468;9.826;2023-03-12T14:53:27;3.10;;;2.90;;
44165;SDS011;30476;53.468;9.826;2023-03-12T14:56:11;2.90;;;2.70;;
44165;SDS011;30476;53.468;9.826;2023-03-12T14:58:43;3.10;;;2.90;;
44165;SDS011;30476;53.468;9.826;2023-03-12T15:01:16;4.27;;;3.03;;
44165;SDS011;30476;53.468;9.826;2023-03-12T15:06:28;3.30;;;3.00;;
44165;SDS011;30476;53.468;9.826;2023-03-12T15:08:56;2.53;;;2.43;;
44165;SDS011;30476;53.468;9.826;2023-03-12T15:11:24;2.90;;;2.57;;
44165;SDS011;30476;53.468;9.826;2023-03-12T15:13:54;2.87;;;2.67;;
44165;SDS011;30476;53.468;9.826;2023-03-12T15:16:27;3.00;;;2.83;;
44165;SDS011;30476;53.468;9.826;2023-03-12T15:18:53;2.93;;;2.73;;
44165;SDS011;30476;53.468;9.826;2023-03-12T15:21:20;2.77;;;2.67;;
44165;SDS011;30476;53.468;9.826;2023-03-12T15:23:46;2.60;;;2.50;;
44165;SDS011;30476;53.468;9.826;2023-03-12T15:29:02;4.63;;;2.30;;
44165;SDS011;30476;53.468;9.826;2023-03-12T15:31:52;2.17;;;2.03;;
44165;SDS011;30476;53.468;9.826;2023-03-12T15:40:24;2.33;;;2.23;;
44165;SDS011;30476;53.468;9.826;2023-03-12T15:42:50;2.33;;;2.23;;
44165;SDS011;30476;53.468;9.826;2023-03-12T15:48:03;1.97;;;1.87;;
44165;SDS011;30476;53.468;9.826;2023-03-12T15:50:40;1.70;;;1.60;;
44165;SDS011;30476;53.468;9.826;2023-03-12T15:55:36;1.90;;;1.80;;
44165;SDS011;30476;53.468;9.826;2023-03-12T15:58:22;2.10;;;1.90;;
44165;SDS011;30476;53.468;9.826;2023-03-12T16:00:50;1.80;;;1.70;;
44165;SDS011;30476;53.468;9.826;2023-03-12T16:03:19;1.87;;;1.77;;
44165;SDS011;30476;53.468;9.826;2023-03-12T16:05:46;1.60;;;1.50;;
44165;SDS011;30476;53.468;9.826;2023-03-12T16:08:14;1.60;;;1.50;;
44165;SDS011;30476;53.468;9.826;2023-03-12T16:10:51;1.83;;;1.73;;
44165;SDS011;30476;53.468;9.826;2023-03-12T16:13:19;1.90;;;1.80;;
44165;SDS011;30476;53.468;9.826;2023-03-12T16:15:46;2.10;;;2.00;;
44165;SDS011;30476;53.468;9.826;2023-03-12T16:18:14;2.20;;;2.10;;
44165;SDS011;30476;53.468;9.826;2023-03-12T16:20:42;2.70;;;2.50;;
44165;SDS011;30476;53.468;9.826;2023-03-12T16:23:08;2.30;;;2.20;;
44165;SDS011;30476;53.468;9.826;2023-03-12T16:25:34;2.30;;;2.20;;
44165;SDS011;30476;53.468;9.826;2023-03-12T16:28:02;2.47;;;2.37;;
44165;SDS011;30476;53.468;9.826;2023-03-12T16:30:30;2.80;;;2.70;;
44165;SDS011;30476;53.468;9.826;2023-03-12T16:33:01;2.30;;;2.20;;
44165;SDS011;30476;53.468;9.826;2023-03-12T16:35:29;3.20;;;3.00;;
44165;SDS011;30476;53.468;9.826;2023-03-12T16:37:59;2.83;;;2.63;;
44165;SDS011;30476;53.468;9.826;2023-03-12T16:40:30;2.50;;;2.40;;
44165;SDS011;30476;53.468;9.826;2023-03-12T16:42:58;2.77;;;2.67;;
44165;SDS011;30476;53.468;9.826;2023-03-12T16:45:27;3.53;;;3.23;;
44165;SDS011;30476;53.468;9.826;2023-03-12T16:47:57;2.73;;;2.53;;
44165;SDS011;30476;53.468;9.826;2023-03-12T16:50:24;3.30;;;3.10;;
44165;SDS011;30476;53.468;9.826;2023-03-12T16:52:50;3.20;;;3.00;;
44165;SDS011;30476;53.468;9.826;2023-03-12T16:55:17;3.70;;;3.50;;
44165;SDS011;30476;53.468;9.826;2023-03-12T16:57:44;4.30;;;4.00;;
44165;SDS011;30476;53.468;9.826;2023-03-12T17:00:15;4.00;;;3.70;;
44165;SDS011;30476;53.468;9.826;2023-03-12T17:02:51;3.80;;;3.67;;
44165;SDS011;30476;53.468;9.826;2023-03-12T17:05:25;3.57;;;3.37;;
44165;SDS011;30476;53.468;9.826;2023-03-12T17:07:53;4.60;;;4.20;;
44165;SDS011;30476;53.468;9.826;2023-03-12T17:10:20;5.13;;;4.80;;
44165;SDS011;30476;53.468;9.826;2023-03-12T17:12:46;4.90;;;4.57;;